sensor_id;sensor_type;location;lat;lon;timestamp;pressure;altitude;pressure_sealevel;temperature;humidity
10480;BME280;12789;42.610;23.040;2022-09-21T00:01:04;93783.03;;;9.40;100.00
10480;BME280;12789;42.610;23.040;2022-09-21T00:03:30;93783.75;;;9.52;100.00
10480;BME280;12789;42.610;23.040;2022-09-21T00:06:01;93774.44;;;9.40;100.00
10480;BME280;12789;42.610;23.040;2022-09-21T00:08:28;93772.53;;;9.42;100.00
10480;BME280;12789;42.610;23.040;2022-09-21T00:10:56;93765.34;;;8.87;100.00
10480;BME280;12789;42.610;23.040;2022-09-21T00:13:24;93768.28;;;9.12;100.00
10480;BME280;12789;42.610;23.040;2022-09-21T00:15:55;93762.34;;;9.40;100.00
10480;BME280;12789;42.610;23.040;2022-09-21T00:18:23;93767.34;;;9.23;100.00
10480;BME280;12789;42.610;23.040;2022-09-21T00:20:50;93788.00;;;9.13;100.00
10480;BME280;12789;42.610;23.040;2022-09-21T00:23:17;93769.84;;;9.72;100.00
10480;BME280;12789;42.610;23.040;2022-09-21T00:25:44;93770.13;;;9.50;100.00
10480;BME280;12789;42.610;23.040;2022-09-21T00:28:12;93760.59;;;9.79;100.00
10480;BME280;12789;42.610;23.040;2022-09-21T00:30:39;93766.44;;;9.43;100.00
10480;BME280;12789;42.610;23.040;2022-09-21T00:33:06;93764.28;;;9.76;100.00
10480;BME280;12789;42.610;23.040;2022-09-21T00:35:34;93762.22;;;9.99;100.00
10480;BME280;12789;42.610;23.040;2022-09-21T00:38:02;93735.13;;;10.03;100.00
10480;BME280;12789;42.610;23.040;2022-09-21T00:40:29;93746.16;;;9.86;100.00
10480;BME280;12789;42.610;23.040;2022-09-21T00:43:12;93765.53;;;9.82;100.00
10480;BME280;12789;42.610;23.040;2022-09-21T00:45:39;93756.53;;;10.05;100.00
10480;BME280;12789;42.610;23.040;2022-09-21T00:48:07;93763.06;;;10.18;100.00
10480;BME280;12789;42.610;23.040;2022-09-21T00:50:34;93761.69;;;9.76;100.00
10480;BME280;12789;42.610;23.040;2022-09-21T00:53:04;93754.97;;;9.36;100.00
10480;BME280;12789;42.610;23.040;2022-09-21T00:55:33;93742.09;;;9.64;100.00
10480;BME280;12789;42.610;23.040;2022-09-21T00:58:06;93759.06;;;9.38;100.00
10480;BME280;12789;42.610;23.040;2022-09-21T01:00:36;93747.91;;;9.47;100.00
10480;BME280;12789;42.610;23.040;2022-09-21T01:03:04;93755.16;;;9.72;100.00
10480;BME280;12789;42.610;23.040;2022-09-21T01:05:31;93753.38;;;9.82;100.00
10480;BME280;12789;42.610;23.040;2022-09-21T01:08:00;93765.19;;;9.28;100.00
10480;BME280;12789;42.610;23.040;2022-09-21T01:10:34;93756.38;;;9.59;100.00
10480;BME280;12789;42.610;23.040;2022-09-21T01:13:12;93753.50;;;9.43;100.00
10480;BME280;12789;42.610;23.040;2022-09-21T01:15:49;93752.69;;;9.52;100.00
10480;BME280;12789;42.610;23.040;2022-09-21T01:18:22;93761.97;;;9.45;100.00
10480;BME280;12789;42.610;23.040;2022-09-21T01:21:19;93735.28;;;9.63;100.00
10480;BME280;12789;42.610;23.040;2022-09-21T01:24:13;93750.38;;;9.68;100.00
10480;BME280;12789;42.610;23.040;2022-09-21T01:29:57;93754.34;;;9.53;100.00
10480;BME280;12789;42.610;23.040;2022-09-21T01:32:29;93748.34;;;9.62;100.00
10480;BME280;12789;42.610;23.040;2022-09-21T01:35:03;93746.28;;;9.56;100.00
10480;BME280;12789;42.610;23.040;2022-09-21T01:37:37;93743.44;;;9.59;100.00
10480;BME280;12789;42.610;23.040;2022-09-21T01:40:10;93734.47;;;9.44;100.00
10480;BME280;12789;42.610;23.040;2022-09-21T01:42:39;93742.84;;;9.27;100.00
10480;BME280;12789;42.610;23.040;2022-09-21T01:45:11;93711.28;;;9.23;100.00
10480;BME280;12789;42.610;23.040;2022-09-21T01:47:42;93738.78;;;9.34;100.00
10480;BME280;12789;42.610;23.040;2022-09-21T01:50:12;93743.56;;;9.48;100.00
10480;BME280;12789;42.610;23.040;2022-09-21T01:52:45;93722.72;;;9.49;100.00
10480;BME280;12789;42.610;23.040;2022-09-21T01:55:17;93737.97;;;9.52;100.00
10480;BME280;12789;42.610;23.040;2022-09-21T01:57:53;93742.81;;;9.17;100.00
10480;BME280;12789;42.610;23.040;2022-09-21T02:00:25;93738.53;;;9.46;100.00
10480;BME280;12789;42.610;23.040;2022-09-21T02:02:58;93737.28;;;9.50;100.00
10480;BME280;12789;42.610;23.040;2022-09-21T02:05:27;93738.06;;;9.13;100.00
10480;BME280;12789;42.610;23.040;2022-09-21T02:07:56;93732.25;;;9.39;100.00
10480;BME280;12789;42.610;23.040;2022-09-21T02:10:27;93729.78;;;9.19;100.00
10480;BME280;12789;42.610;23.040;2022-09-21T02:12:59;93738.41;;;9.48;100.00
10480;BME280;12789;42.610;23.040;2022-09-21T02:15:33;93720.56;;;9.64;100.00
10480;BME280;12789;42.610;23.040;2022-09-21T02:18:06;93737.66;;;9.08;100.00
10480;BME280;12789;42.610;23.040;2022-09-21T02:20:37;93723.19;;;8.96;100.00
10480;BME280;12789;42.610;23.040;2022-09-21T02:23:13;93735.03;;;8.98;100.00
10480;BME280;12789;42.610;23.040;2022-09-21T02:25:48;93731.91;;;8.95;100.00
10480;BME280;12789;42.610;23.040;2022-09-21T02:28:27;93746.31;;;8.88;100.00
10480;BME280;12789;42.610;23.040;2022-09-21T02:31:05;93736.00;;;8.97;100.00
10480;BME280;12789;42.610;23.040;2022-09-21T02:33:42;93743.38;;;9.11;100.00
10480;BME280;12789;42.610;23.040;2022-09-21T02:36:19;93736.31;;;9.42;100.00
10480;BME280;12789;42.610;23.040;2022-09-21T02:38:51;93734.97;;;9.28;100.00
10480;BME280;12789;42.610;23.040;2022-09-21T02:41:22;93730.91;;;9.35;100.00
10480;BME280;12789;42.610;23.040;2022-09-21T02:44:00;93736.25;;;8.94;100.00
10480;BME280;12789;42.610;23.040;2022-09-21T02:46:33;93726.63;;;9.06;100.00
10480;BME280;12789;42.610;23.040;2022-09-21T02:49:04;93728.63;;;8.93;100.00
10480;BME280;12789;42.610;23.040;2022-09-21T02:51:37;93733.56;;;9.05;100.00
10480;BME280;12789;42.610;23.040;2022-09-21T02:54:07;93733.44;;;9.07;100.00
10480;BME280;12789;42.610;23.040;2022-09-21T02:56:37;93757.50;;;9.07;100.00
10480;BME280;12789;42.610;23.040;2022-09-21T02:59:05;93728.09;;;8.89;100.00
10480;BME280;12789;42.610;23.040;2022-09-21T03:01:34;93739.66;;;8.86;100.00
10480;BME280;12789;42.610;23.040;2022-09-21T03:04:02;93745.81;;;8.64;100.00
10480;BME280;12789;42.610;23.040;2022-09-21T03:06:28;93737.72;;;8.78;100.00
10480;BME280;12789;42.610;23.040;2022-09-21T03:08:55;93743.47;;;8.52;100.00
10480;BME280;12789;42.610;23.040;2022-09-21T03:11:23;93733.06;;;8.42;100.00
10480;BME280;12789;42.610;23.040;2022-09-21T03:13:50;93738.66;;;8.47;100.00
10480;BME280;12789;42.610;23.040;2022-09-21T03:16:18;93740.78;;;8.63;100.00
10480;BME280;12789;42.610;23.040;2022-09-21T03:18:46;93734.81;;;8.72;100.00
10480;BME280;12789;42.610;23.040;2022-09-21T03:21:13;93744.34;;;8.71;100.00
10480;BME280;12789;42.610;23.040;2022-09-21T03:23:40;93740.84;;;8.22;100.00
10480;BME280;12789;42.610;23.040;2022-09-21T03:26:07;93727.06;;;8.72;100.00
10480;BME280;12789;42.610;23.040;2022-09-21T03:28:34;93735.72;;;8.61;100.00
10480;BME280;12789;42.610;23.040;2022-09-21T03:31:01;93742.72;;;8.70;100.00
10480;BME280;12789;42.610;23.040;2022-09-21T03:33:28;93724.91;;;8.37;100.00
10480;BME280;12789;42.610;23.040;2022-09-21T03:35:57;93746.19;;;8.60;100.00
10480;BME280;12789;42.610;23.040;2022-09-21T03:38:24;93748.41;;;8.64;100.00
10480;BME280;12789;42.610;23.040;2022-09-21T03:40:51;93745.38;;;8.59;100.00
10480;BME280;12789;42.610;23.040;2022-09-21T03:43:19;93749.25;;;8.74;100.00
10480;BME280;12789;42.610;23.040;2022-09-21T03:45:46;93757.28;;;8.71;100.00
10480;BME280;12789;42.610;23.040;2022-09-21T03:48:13;93757.00;;;8.44;100.00
10480;BME280;12789;42.610;23.040;2022-09-21T03:50:41;93758.09;;;8.21;100.00
10480;BME280;12789;42.610;23.040;2022-09-21T03:53:10;93771.28;;;8.07;100.00
10480;BME280;12789;42.610;23.040;2022-09-21T03:55:37;93752.59;;;8.15;100.00
10480;BME280;12789;42.610;23.040;2022-09-21T03:58:04;93749.53;;;7.80;100.00
10480;BME280;12789;42.610;23.040;2022-09-21T04:00:32;93752.97;;;8.10;100.00
10480;BME280;12789;42.610;23.040;2022-09-21T04:02:59;93744.44;;;7.89;100.00
10480;BME280;12789;42.610;23.040;2022-09-21T04:05:26;93743.16;;;8.45;100.00
10480;BME280;12789;42.610;23.040;2022-09-21T04:07:54;93758.00;;;8.92;100.00
10480;BME280;12789;42.610;23.040;2022-09-21T04:10:23;93761.59;;;8.71;100.00
10480;BME280;12789;42.610;23.040;2022-09-21T04:12:58;93765.13;;;8.70;100.00
10480;BME280;12789;42.610;23.040;2022-09-21T04:15:26;93766.88;;;8.60;100.00
10480;BME280;12789;42.610;23.040;2022-09-21T04:17:53;93766.28;;;8.47;100.00
10480;BME280;12789;42.610;23.040;2022-09-21T04:20:21;93771.38;;;8.37;100.00
10480;BME280;12789;42.610;23.040;2022-09-21T04:22:48;93777.03;;;7.59;100.00
10480;BME280;12789;42.610;23.040;2022-09-21T04:25:16;93771.13;;;7.99;100.00
10480;BME280;12789;42.610;23.040;2022-09-21T04:27:45;93773.81;;;7.98;100.00
10480;BME280;12789;42.610;23.040;2022-09-21T04:30:13;93779.88;;;7.87;100.00
10480;BME280;12789;42.610;23.040;2022-09-21T04:32:40;93780.75;;;8.38;100.00
10480;BME280;12789;42.610;23.040;2022-09-21T04:35:08;93776.63;;;8.26;100.00
10480;BME280;12789;42.610;23.040;2022-09-21T04:37:35;93774.09;;;7.63;100.00
10480;BME280;12789;42.610;23.040;2022-09-21T04:40:03;93773.84;;;7.66;100.00
10480;BME280;12789;42.610;23.040;2022-09-21T04:42:30;93779.06;;;7.13;100.00
10480;BME280;12789;42.610;23.040;2022-09-21T04:45:03;93771.72;;;7.09;100.00
10480;BME280;12789;42.610;23.040;2022-09-21T04:47:36;93774.25;;;7.51;100.00
10480;BME280;12789;42.610;23.040;2022-09-21T04:50:05;93789.38;;;7.55;100.00
10480;BME280;12789;42.610;23.040;2022-09-21T04:52:33;93752.34;;;7.56;100.00
10480;BME280;12789;42.610;23.040;2022-09-21T04:55:02;93777.84;;;7.91;100.00
10480;BME280;12789;42.610;23.040;2022-09-21T04:57:30;93783.34;;;7.34;100.00
10480;BME280;12789;42.610;23.040;2022-09-21T05:00:02;93777.69;;;7.40;100.00
10480;BME280;12789;42.610;23.040;2022-09-21T05:02:31;93785.28;;;7.11;100.00
10480;BME280;12789;42.610;23.040;2022-09-21T05:05:02;93777.97;;;7.27;100.00
10480;BME280;12789;42.610;23.040;2022-09-21T05:07:29;93778.88;;;6.94;100.00
10480;BME280;12789;42.610;23.040;2022-09-21T05:09:57;93783.31;;;7.03;100.00
10480;BME280;12789;42.610;23.040;2022-09-21T05:12:29;93787.41;;;6.95;100.00
10480;BME280;12789;42.610;23.040;2022-09-21T05:14:56;93787.75;;;7.43;100.00
10480;BME280;12789;42.610;23.040;2022-09-21T05:17:24;93774.31;;;6.87;100.00
10480;BME280;12789;42.610;23.040;2022-09-21T05:19:51;93787.19;;;6.76;100.00
10480;BME280;12789;42.610;23.040;2022-09-21T05:22:19;93783.31;;;6.70;100.00
10480;BME280;12789;42.610;23.040;2022-09-21T05:24:46;93779.59;;;6.63;100.00
10480;BME280;12789;42.610;23.040;2022-09-21T05:27:13;93785.19;;;6.46;100.00
10480;BME280;12789;42.610;23.040;2022-09-21T05:29:40;93779.47;;;6.54;100.00
10480;BME280;12789;42.610;23.040;2022-09-21T05:32:13;93785.31;;;6.67;100.00
10480;BME280;12789;42.610;23.040;2022-09-21T05:34:51;93790.47;;;6.89;100.00
10480;BME280;12789;42.610;23.040;2022-09-21T05:37:43;93798.31;;;6.65;100.00
10480;BME280;12789;42.610;23.040;2022-09-21T05:40:12;93770.00;;;7.30;100.00
10480;BME280;12789;42.610;23.040;2022-09-21T05:42:40;93779.88;;;7.56;100.00
10480;BME280;12789;42.610;23.040;2022-09-21T05:45:11;93780.56;;;7.58;100.00
10480;BME280;12789;42.610;23.040;2022-09-21T05:47:45;93776.28;;;6.94;100.00
10480;BME280;12789;42.610;23.040;2022-09-21T05:50:26;93779.50;;;7.29;100.00
10480;BME280;12789;42.610;23.040;2022-09-21T05:53:02;93770.72;;;7.21;100.00
10480;BME280;12789;42.610;23.040;2022-09-21T05:55:41;93785.41;;;6.98;100.00
10480;BME280;12789;42.610;23.040;2022-09-21T05:58:16;93792.78;;;7.03;100.00
10480;BME280;12789;42.610;23.040;2022-09-21T06:00:51;93787.28;;;7.07;100.00
10480;BME280;12789;42.610;23.040;2022-09-21T06:03:26;93782.28;;;7.37;100.00
10480;BME280;12789;42.610;23.040;2022-09-21T06:05:55;93788.56;;;7.13;100.00
10480;BME280;12789;42.610;23.040;2022-09-21T06:08:22;93799.81;;;7.01;100.00
10480;BME280;12789;42.610;23.040;2022-09-21T06:10:49;93793.59;;;7.56;100.00
10480;BME280;12789;42.610;23.040;2022-09-21T06:13:16;93795.75;;;6.87;100.00
10480;BME280;12789;42.610;23.040;2022-09-21T06:15:44;93788.84;;;8.13;100.00
10480;BME280;12789;42.610;23.040;2022-09-21T06:18:10;93793.59;;;8.08;100.00
10480;BME280;12789;42.610;23.040;2022-09-21T06:20:37;93793.75;;;8.16;100.00
10480;BME280;12789;42.610;23.040;2022-09-21T06:23:09;93773.38;;;8.13;100.00
10480;BME280;12789;42.610;23.040;2022-09-21T06:25:36;93803.22;;;8.06;100.00
10480;BME280;12789;42.610;23.040;2022-09-21T06:28:03;93784.38;;;7.43;100.00
10480;BME280;12789;42.610;23.040;2022-09-21T06:30:31;93791.47;;;8.34;100.00
10480;BME280;12789;42.610;23.040;2022-09-21T06:32:59;93799.78;;;8.37;100.00
10480;BME280;12789;42.610;23.040;2022-09-21T06:35:27;93806.88;;;8.65;100.00
10480;BME280;12789;42.610;23.040;2022-09-21T06:37:57;93799.69;;;8.48;100.00
10480;BME280;12789;42.610;23.040;2022-09-21T06:40:25;93803.41;;;8.85;100.00
10480;BME280;12789;42.610;23.040;2022-09-21T06:42:55;93811.56;;;8.51;100.00
10480;BME280;12789;42.610;23.040;2022-09-21T06:45:23;93809.09;;;9.09;100.00
10480;BME280;12789;42.610;23.040;2022-09-21T06:47:50;93816.53;;;9.02;100.00
10480;BME280;12789;42.610;23.040;2022-09-21T06:50:17;93820.44;;;9.27;100.00
10480;BME280;12789;42.610;23.040;2022-09-21T06:52:45;93813.63;;;9.26;100.00
10480;BME280;12789;42.610;23.040;2022-09-21T06:55:12;93815.81;;;9.40;100.00
10480;BME280;12789;42.610;23.040;2022-09-21T06:57:40;93809.59;;;10.65;100.00
10480;BME280;12789;42.610;23.040;2022-09-21T07:00:10;93816.03;;;10.42;100.00
10480;BME280;12789;42.610;23.040;2022-09-21T07:02:37;93810.91;;;10.05;100.00
10480;BME280;12789;42.610;23.040;2022-09-21T07:05:04;93811.44;;;10.37;100.00
10480;BME280;12789;42.610;23.040;2022-09-21T07:07:32;93810.56;;;10.64;100.00
10480;BME280;12789;42.610;23.040;2022-09-21T07:09:59;93794.56;;;10.78;100.00
10480;BME280;12789;42.610;23.040;2022-09-21T07:12:27;93811.53;;;10.63;100.00
10480;BME280;12789;42.610;23.040;2022-09-21T07:14:55;93815.47;;;10.58;100.00
10480;BME280;12789;42.610;23.040;2022-09-21T07:17:22;93806.81;;;10.86;100.00
10480;BME280;12789;42.610;23.040;2022-09-21T07:19:49;93802.94;;;11.80;100.00
10480;BME280;12789;42.610;23.040;2022-09-21T07:22:16;93807.81;;;11.66;100.00
10480;BME280;12789;42.610;23.040;2022-09-21T07:24:43;93822.38;;;11.93;100.00
10480;BME280;12789;42.610;23.040;2022-09-21T07:27:09;93802.09;;;11.62;100.00
10480;BME280;12789;42.610;23.040;2022-09-21T07:29:37;93805.81;;;11.60;100.00
10480;BME280;12789;42.610;23.040;2022-09-21T07:32:05;93818.50;;;11.26;100.00
10480;BME280;12789;42.610;23.040;2022-09-21T07:34:34;93814.41;;;11.60;100.00
10480;BME280;12789;42.610;23.040;2022-09-21T07:37:01;93811.31;;;11.20;100.00
10480;BME280;12789;42.610;23.040;2022-09-21T07:39:28;93817.03;;;12.73;100.00
10480;BME280;12789;42.610;23.040;2022-09-21T07:41:55;93810.94;;;13.07;100.00
10480;BME280;12789;42.610;23.040;2022-09-21T07:44:23;93819.75;;;12.89;100.00
10480;BME280;12789;42.610;23.040;2022-09-21T07:46:50;93815.34;;;13.07;100.00
10480;BME280;12789;42.610;23.040;2022-09-21T07:49:18;93818.94;;;13.14;100.00
10480;BME280;12789;42.610;23.040;2022-09-21T07:51:45;93823.38;;;12.53;100.00
10480;BME280;12789;42.610;23.040;2022-09-21T07:54:12;93825.50;;;12.14;100.00
10480;BME280;12789;42.610;23.040;2022-09-21T07:56:40;93823.13;;;12.38;100.00
10480;BME280;12789;42.610;23.040;2022-09-21T07:59:27;93819.78;;;12.11;100.00
10480;BME280;12789;42.610;23.040;2022-09-21T08:01:56;93817.09;;;12.81;100.00
10480;BME280;12789;42.610;23.040;2022-09-21T08:04:25;93822.94;;;12.57;100.00
10480;BME280;12789;42.610;23.040;2022-09-21T08:06:52;93824.34;;;12.52;100.00
10480;BME280;12789;42.610;23.040;2022-09-21T08:09:19;93820.75;;;12.27;100.00
10480;BME280;12789;42.610;23.040;2022-09-21T08:11:46;93821.53;;;12.63;100.00
10480;BME280;12789;42.610;23.040;2022-09-21T08:14:13;93806.09;;;12.44;100.00
10480;BME280;12789;42.610;23.040;2022-09-21T08:16:44;93827.13;;;12.76;100.00
10480;BME280;12789;42.610;23.040;2022-09-21T08:19:11;93826.75;;;12.88;100.00
10480;BME280;12789;42.610;23.040;2022-09-21T08:21:40;93825.19;;;13.29;100.00
10480;BME280;12789;42.610;23.040;2022-09-21T08:24:07;93823.22;;;13.56;100.00
10480;BME280;12789;42.610;23.040;2022-09-21T08:26:33;93801.84;;;13.11;100.00
10480;BME280;12789;42.610;23.040;2022-09-21T08:29:01;93804.31;;;13.54;100.00
10480;BME280;12789;42.610;23.040;2022-09-21T08:31:28;93811.03;;;13.64;100.00
10480;BME280;12789;42.610;23.040;2022-09-21T08:33:55;93802.88;;;14.17;100.00
10480;BME280;12789;42.610;23.040;2022-09-21T08:36:22;93801.28;;;14.48;100.00
10480;BME280;12789;42.610;23.040;2022-09-21T08:38:51;93785.03;;;13.80;100.00
10480;BME280;12789;42.610;23.040;2022-09-21T08:41:22;93803.38;;;14.52;100.00
10480;BME280;12789;42.610;23.040;2022-09-21T08:43:52;93788.97;;;15.04;96.14
10480;BME280;12789;42.610;23.040;2022-09-21T08:46:23;93801.28;;;14.48;98.31
10480;BME280;12789;42.610;23.040;2022-09-21T08:48:55;93779.34;;;15.04;99.17
10480;BME280;12789;42.610;23.040;2022-09-21T08:51:25;93783.81;;;14.64;96.86
10480;BME280;12789;42.610;23.040;2022-09-21T08:53:59;93785.44;;;14.41;92.47
10480;BME280;12789;42.610;23.040;2022-09-21T08:56:27;93777.09;;;14.14;90.02
10480;BME280;12789;42.610;23.040;2022-09-21T08:58:54;93775.66;;;14.75;84.92
10480;BME280;12789;42.610;23.040;2022-09-21T09:01:38;93778.28;;;14.19;81.82
10480;BME280;12789;42.610;23.040;2022-09-21T09:04:27;93784.94;;;14.14;81.78
10480;BME280;12789;42.610;23.040;2022-09-21T09:07:08;93778.22;;;14.11;81.65
10480;BME280;12789;42.610;23.040;2022-09-21T09:09:56;93791.34;;;13.29;83.76
10480;BME280;12789;42.610;23.040;2022-09-21T09:12:43;93769.31;;;14.62;80.91
10480;BME280;12789;42.610;23.040;2022-09-21T09:15:36;93785.94;;;14.29;78.19
10480;BME280;12789;42.610;23.040;2022-09-21T09:18:13;93749.59;;;14.43;79.22
10480;BME280;12789;42.610;23.040;2022-09-21T09:20:46;93759.88;;;14.21;78.19
10480;BME280;12789;42.610;23.040;2022-09-21T09:23:20;93766.84;;;14.52;79.67
10480;BME280;12789;42.610;23.040;2022-09-21T09:25:52;93759.66;;;13.98;80.67
10480;BME280;12789;42.610;23.040;2022-09-21T09:28:25;93764.34;;;13.30;82.97
10480;BME280;12789;42.610;23.040;2022-09-21T09:30:57;93764.34;;;13.87;81.83
10480;BME280;12789;42.610;23.040;2022-09-21T09:33:29;93761.72;;;13.71;81.84
10480;BME280;12789;42.610;23.040;2022-09-21T09:36:01;93763.28;;;13.48;81.52
10480;BME280;12789;42.610;23.040;2022-09-21T09:38:33;93740.69;;;13.48;81.19
10480;BME280;12789;42.610;23.040;2022-09-21T09:44:28;93771.53;;;13.85;82.68
10480;BME280;12789;42.610;23.040;2022-09-21T09:47:04;93754.31;;;14.32;80.39
10480;BME280;12789;42.610;23.040;2022-09-21T09:49:40;93735.72;;;14.75;77.51
10480;BME280;12789;42.610;23.040;2022-09-21T09:52:15;93754.81;;;14.35;79.29
10480;BME280;12789;42.610;23.040;2022-09-21T09:54:43;93737.03;;;14.63;79.29
10480;BME280;12789;42.610;23.040;2022-09-21T09:57:10;93701.31;;;13.51;80.63
10480;BME280;12789;42.610;23.040;2022-09-21T09:59:42;93738.44;;;14.89;80.18
10480;BME280;12789;42.610;23.040;2022-09-21T10:02:18;93753.03;;;14.44;78.32
10480;BME280;12789;42.610;23.040;2022-09-21T10:04:54;93744.88;;;14.47;76.94
10480;BME280;12789;42.610;23.040;2022-09-21T10:07:32;93738.13;;;14.92;76.34
10480;BME280;12789;42.610;23.040;2022-09-21T10:09:59;93738.31;;;14.83;74.31
10480;BME280;12789;42.610;23.040;2022-09-21T10:12:26;93735.94;;;14.17;76.05
10480;BME280;12789;42.610;23.040;2022-09-21T10:14:56;93716.63;;;13.62;76.14
10480;BME280;12789;42.610;23.040;2022-09-21T10:17:26;93732.91;;;13.64;79.78
10480;BME280;12789;42.610;23.040;2022-09-21T10:20:03;93735.16;;;13.51;78.99
10480;BME280;12789;42.610;23.040;2022-09-21T10:22:32;93728.06;;;13.93;76.93
10480;BME280;12789;42.610;23.040;2022-09-21T10:25:00;93722.53;;;14.44;75.89
10480;BME280;12789;42.610;23.040;2022-09-21T10:27:33;93703.22;;;14.93;73.72
10480;BME280;12789;42.610;23.040;2022-09-21T10:30:02;93705.50;;;16.54;74.13
10480;BME280;12789;42.610;23.040;2022-09-21T10:32:29;93693.94;;;16.27;72.59
10480;BME280;12789;42.610;23.040;2022-09-21T10:37:46;93680.47;;;16.38;70.72
10480;BME280;12789;42.610;23.040;2022-09-21T10:40:23;93691.31;;;15.29;72.09
10480;BME280;12789;42.610;23.040;2022-09-21T10:42:53;93667.06;;;15.73;70.85
10480;BME280;12789;42.610;23.040;2022-09-21T10:45:23;93688.75;;;16.04;69.73
10480;BME280;12789;42.610;23.040;2022-09-21T10:47:52;93665.66;;;15.63;69.18
10480;BME280;12789;42.610;23.040;2022-09-21T10:50:23;93679.63;;;16.59;65.93
10480;BME280;12789;42.610;23.040;2022-09-21T10:52:56;93680.31;;;16.17;67.62
10480;BME280;12789;42.610;23.040;2022-09-21T10:55:24;93665.00;;;17.37;64.86
10480;BME280;12789;42.610;23.040;2022-09-21T10:57:53;93655.63;;;16.70;66.08
10480;BME280;12789;42.610;23.040;2022-09-21T11:00:33;93654.69;;;17.21;66.45
10480;BME280;12789;42.610;23.040;2022-09-21T11:06:14;93665.19;;;16.78;66.55
10480;BME280;12789;42.610;23.040;2022-09-21T11:08:51;93642.00;;;16.89;65.71
10480;BME280;12789;42.610;23.040;2022-09-21T11:11:34;93644.88;;;16.65;63.07
10480;BME280;12789;42.610;23.040;2022-09-21T11:14:13;93613.41;;;17.23;60.30
10480;BME280;12789;42.610;23.040;2022-09-21T11:16:49;93640.16;;;17.04;61.33
10480;BME280;12789;42.610;23.040;2022-09-21T11:19:24;93634.19;;;16.01;64.67
10480;BME280;12789;42.610;23.040;2022-09-21T11:21:59;93638.28;;;16.84;63.22
10480;BME280;12789;42.610;23.040;2022-09-21T11:24:34;93647.31;;;16.16;64.61
10480;BME280;12789;42.610;23.040;2022-09-21T11:27:06;93645.25;;;16.26;64.30
10480;BME280;12789;42.610;23.040;2022-09-21T11:29:42;93643.41;;;15.89;63.77
10480;BME280;12789;42.610;23.040;2022-09-21T11:32:26;93643.47;;;16.04;64.59
10480;BME280;12789;42.610;23.040;2022-09-21T11:35:11;93647.88;;;16.26;63.75
10480;BME280;12789;42.610;23.040;2022-09-21T11:38:03;93611.59;;;16.74;60.51
10480;BME280;12789;42.610;23.040;2022-09-21T11:40:42;93628.81;;;16.68;61.18
10480;BME280;12789;42.610;23.040;2022-09-21T11:43:22;93614.88;;;17.82;61.33
10480;BME280;12789;42.610;23.040;2022-09-21T11:45:57;93605.25;;;18.99;58.62
10480;BME280;12789;42.610;23.040;2022-09-21T11:48:38;93607.19;;;17.81;58.73
10480;BME280;12789;42.610;23.040;2022-09-21T11:51:22;93623.75;;;16.81;62.81
10480;BME280;12789;42.610;23.040;2022-09-21T11:54:31;93633.03;;;16.41;64.62
10480;BME280;12789;42.610;23.040;2022-09-21T11:57:09;93635.66;;;16.55;62.92
10480;BME280;12789;42.610;23.040;2022-09-21T11:59:54;93623.50;;;15.88;63.79
10480;BME280;12789;42.610;23.040;2022-09-21T12:05:37;93628.84;;;15.95;63.34
10480;BME280;12789;42.610;23.040;2022-09-21T12:08:32;93626.97;;;16.03;64.69
10480;BME280;12789;42.610;23.040;2022-09-21T12:11:10;93630.50;;;15.20;63.29
10480;BME280;12789;42.610;23.040;2022-09-21T12:13:48;93640.19;;;15.65;63.67
10480;BME280;12789;42.610;23.040;2022-09-21T12:16:25;93620.31;;;15.56;62.42
10480;BME280;12789;42.610;23.040;2022-09-21T12:18:59;93647.78;;;15.52;62.15
10480;BME280;12789;42.610;23.040;2022-09-21T12:21:34;93641.28;;;15.70;62.19
10480;BME280;12789;42.610;23.040;2022-09-21T12:24:04;93587.19;;;16.88;60.29
10480;BME280;12789;42.610;23.040;2022-09-21T12:26:40;93626.34;;;16.96;60.31
10480;BME280;12789;42.610;23.040;2022-09-21T12:29:13;93638.16;;;15.75;63.96
10480;BME280;12789;42.610;23.040;2022-09-21T12:31:47;93631.22;;;17.13;62.24
10480;BME280;12789;42.610;23.040;2022-09-21T12:34:18;93603.28;;;17.70;59.56
10480;BME280;12789;42.610;23.040;2022-09-21T12:36:57;93635.50;;;16.20;60.96
10480;BME280;12789;42.610;23.040;2022-09-21T12:39:28;93618.84;;;17.36;59.21
10480;BME280;12789;42.610;23.040;2022-09-21T12:42:04;93594.47;;;18.53;58.49
10480;BME280;12789;42.610;23.040;2022-09-21T12:44:38;93622.09;;;18.77;58.46
10480;BME280;12789;42.610;23.040;2022-09-21T12:47:19;93613.97;;;18.72;56.71
10480;BME280;12789;42.610;23.040;2022-09-21T12:49:50;93609.81;;;19.84;52.13
10480;BME280;12789;42.610;23.040;2022-09-21T12:52:21;93610.00;;;18.48;57.82
10480;BME280;12789;42.610;23.040;2022-09-21T12:54:55;93602.63;;;19.46;54.67
10480;BME280;12789;42.610;23.040;2022-09-21T12:57:30;93606.81;;;18.53;56.37
10480;BME280;12789;42.610;23.040;2022-09-21T13:00:03;93617.09;;;17.64;59.59
10480;BME280;12789;42.610;23.040;2022-09-21T13:02:34;93614.19;;;17.53;61.11
10480;BME280;12789;42.610;23.040;2022-09-21T13:05:10;93595.75;;;18.09;59.40
10480;BME280;12789;42.610;23.040;2022-09-21T13:07:59;93629.16;;;16.37;64.67
10480;BME280;12789;42.610;23.040;2022-09-21T13:10:36;93625.56;;;16.15;63.87
10480;BME280;12789;42.610;23.040;2022-09-21T13:13:06;93630.00;;;16.15;64.42
10480;BME280;12789;42.610;23.040;2022-09-21T13:15:42;93616.28;;;16.50;63.39
10480;BME280;12789;42.610;23.040;2022-09-21T13:18:17;93621.19;;;15.48;64.66
10480;BME280;12789;42.610;23.040;2022-09-21T13:20:45;93620.88;;;16.25;63.03
10480;BME280;12789;42.610;23.040;2022-09-21T13:23:16;93614.56;;;16.56;62.40
10480;BME280;12789;42.610;23.040;2022-09-21T13:25:47;93616.53;;;16.54;62.05